createdAt,value
2023-01-07T00:00:12.127Z,99869.00
2023-01-07T00:02:40.789Z,99872.47
2023-01-07T00:05:10.583Z,99868.16
2023-01-07T00:07:40.619Z,99863.03
2023-01-07T00:10:10.102Z,99856.25
2023-01-07T00:12:38.723Z,99849.44
2023-01-07T00:15:08.980Z,99849.44
2023-01-07T00:17:37.588Z,99846.88
2023-01-07T00:20:07.562Z,99843.47
2023-01-07T00:22:36.163Z,99844.31
2023-01-07T00:25:07.304Z,99843.47
2023-01-07T00:27:35.929Z,99844.41
2023-01-07T00:30:05.235Z,99833.22
2023-01-07T00:35:28.480Z,99824.84
2023-01-07T00:37:57.500Z,99819.72
2023-01-07T00:40:26.430Z,99812.97
2023-01-07T00:43:01.666Z,99818.09
2023-01-07T00:45:33.160Z,99813.97
2023-01-07T00:48:03.415Z,99818.09
2023-01-07T00:50:36.613Z,99815.63
2023-01-07T00:53:06.258Z,99805.38
2023-01-07T00:55:35.015Z,99808.75
2023-01-07T00:58:04.590Z,99811.31
2023-01-07T01:00:33.615Z,99809.69
2023-01-07T01:03:02.950Z,99811.31
2023-01-07T01:05:32.999Z,99802.81
2023-01-07T01:08:01.647Z,99813.88
2023-01-07T01:10:30.301Z,99802.00
2023-01-07T01:12:59.019Z,99805.38
2023-01-07T01:15:27.877Z,99810.50
2023-01-07T01:17:56.621Z,99799.47
2023-01-07T01:20:25.315Z,99802.81
2023-01-07T01:22:55.367Z,99802.81
2023-01-07T01:25:23.954Z,99804.56
2023-01-07T01:27:52.969Z,99803.72
2023-01-07T01:30:21.762Z,99803.72
2023-01-07T01:32:50.693Z,99800.38
2023-01-07T01:35:19.320Z,99800.38
2023-01-07T01:37:47.954Z,99793.50
2023-01-07T01:40:18.114Z,99796.97
2023-01-07T01:42:46.744Z,99799.47
2023-01-07T01:45:19.276Z,99786.72
2023-01-07T01:47:51.234Z,99792.69
2023-01-07T01:50:26.153Z,99786.72
2023-01-07T01:53:01.878Z,99780.81
2023-01-07T01:55:37.305Z,99780.00
2023-01-07T01:58:12.740Z,99780.81
2023-01-07T02:00:41.531Z,99777.44
2023-01-07T02:03:18.083Z,99780.00
2023-01-07T02:05:48.153Z,99771.47
2023-01-07T02:08:22.054Z,99773.13
2023-01-07T02:11:08.554Z,99766.38
2023-01-07T02:13:48.668Z,99771.47
2023-01-07T02:16:24.561Z,99767.19
2023-01-07T02:19:28.883Z,99769.84
2023-01-07T02:22:02.891Z,99763.91
2023-01-07T02:25:17.155Z,99763.09
2023-01-07T02:28:17.210Z,99760.63
2023-01-07T02:31:20.614Z,99758.97
2023-01-07T02:33:59.469Z,99755.53
2023-01-07T02:36:51.050Z,99746.19
2023-01-07T02:39:47.597Z,99743.63
2023-01-07T02:42:24.801Z,99743.53
2023-01-07T02:45:03.827Z,99744.44
2023-01-07T02:47:38.756Z,99741.78
2023-01-07T02:50:10.415Z,99740.97
2023-01-07T02:52:39.211Z,99739.22
2023-01-07T02:55:15.887Z,99734.94
2023-01-07T02:58:29.199Z,99727.38
2023-01-07T03:01:37.185Z,99727.47
2023-01-07T03:04:44.663Z,99726.63
2023-01-07T03:07:29.327Z,99724.91
2023-01-07T03:10:07.064Z,99713.03
2023-01-07T03:12:42.637Z,99717.25
2023-01-07T03:15:18.927Z,99710.38
2023-01-07T03:17:55.829Z,99703.50
2023-01-07T03:20:27.103Z,99712.03
2023-01-07T03:22:58.897Z,99700.03
2023-01-07T03:25:31.199Z,99697.47
2023-01-07T03:28:01.921Z,99697.47
2023-01-07T03:30:33.436Z,99699.13
2023-01-07T03:33:09.056Z,99696.56
2023-01-07T03:35:41.385Z,99704.25
2023-01-07T03:38:12.653Z,99694.81
2023-01-07T03:40:41.482Z,99694.81
2023-01-07T03:43:14.203Z,99690.63
2023-01-07T03:45:44.426Z,99688.91
2023-01-07T03:48:13.124Z,99688.78
2023-01-07T03:50:41.810Z,99693.09
2023-01-07T03:53:11.905Z,99685.44
2023-01-07T03:55:40.754Z,99681.13
2023-01-07T03:58:10.066Z,99676.00
2023-01-07T04:00:38.707Z,99685.44
2023-01-07T04:03:17.018Z,99674.34
2023-01-07T04:05:48.222Z,99669.13
2023-01-07T04:08:18.328Z,99666.56
2023-01-07T04:10:47.628Z,99666.56
2023-01-07T04:13:16.306Z,99661.47
2023-01-07T04:15:47.210Z,99663.09
2023-01-07T04:18:15.765Z,99657.19
2023-01-07T04:20:48.791Z,99655.44
2023-01-07T04:23:19.664Z,99647.75
2023-01-07T04:25:51.262Z,99650.31
2023-01-07T04:28:24.008Z,99648.66
2023-01-07T04:30:53.127Z,99652.88
2023-01-07T04:33:22.609Z,99650.31
2023-01-07T04:35:51.303Z,99649.41
2023-01-07T04:38:22.450Z,99644.28
2023-01-07T04:40:51.436Z,99641.72
2023-01-07T04:43:20.113Z,99639.97
2023-01-07T04:45:48.879Z,99639.97
2023-01-07T04:48:20.055Z,99645.09
2023-01-07T04:50:52.117Z,99628.94
2023-01-07T04:53:22.810Z,99628.94
2023-01-07T04:55:51.955Z,99633.22
2023-01-07T04:58:20.899Z,99622.97
2023-01-07T05:00:50.025Z,99627.28
2023-01-07T05:03:20.499Z,99612.75
2023-01-07T05:05:50.097Z,99620.41
2023-01-07T05:08:20.253Z,99611.94
2023-01-07T05:10:51.839Z,99605.06
2023-01-07T05:13:23.760Z,99618.69
2023-01-07T05:15:53.360Z,99607.63
2023-01-07T05:18:22.675Z,99607.63
2023-01-07T05:20:51.328Z,99608.47
2023-01-07T05:23:20.797Z,99599.03
2023-01-07T05:25:52.092Z,99602.50
2023-01-07T05:28:20.859Z,99592.28
2023-01-07T05:30:49.572Z,99584.72
2023-01-07T05:33:18.654Z,99587.25
2023-01-07T05:35:49.644Z,99579.59
2023-01-07T05:38:19.745Z,99577.03
2023-01-07T05:40:51.422Z,99579.59
2023-01-07T05:43:24.424Z,99570.28
2023-01-07T05:45:53.134Z,99570.28
2023-01-07T05:48:21.841Z,99571.09
2023-01-07T05:50:50.433Z,99574.56
2023-01-07T05:53:19.414Z,99572.84
2023-01-07T05:55:48.090Z,99566.91
2023-01-07T05:58:18.095Z,99568.66
2023-01-07T06:00:46.775Z,99568.66
2023-01-07T06:03:15.527Z,99570.38
2023-01-07T06:05:44.475Z,99569.47
2023-01-07T06:08:13.058Z,99562.69
2023-01-07T06:10:42.429Z,99564.44
2023-01-07T06:13:11.204Z,99561.88
2023-01-07T06:15:41.303Z,99566.19
2023-01-07T06:18:10.152Z,99557.69
2023-01-07T06:20:38.732Z,99564.44
2023-01-07T06:23:07.316Z,99556.88
2023-01-07T06:25:35.966Z,99556.78
2023-01-07T06:28:05.271Z,99555.13
2023-01-07T06:30:33.957Z,99547.44
2023-01-07T06:33:05.473Z,99541.53
2023-01-07T06:35:34.762Z,99553.41
2023-01-07T06:38:03.395Z,99541.53
2023-01-07T06:40:32.123Z,99542.34
2023-01-07T06:43:00.764Z,99538.97
2023-01-07T06:45:29.877Z,99521.88
2023-01-07T06:47:58.658Z,99535.59
2023-01-07T06:50:28.823Z,99525.38
2023-01-07T06:52:57.968Z,99513.38
2023-01-07T06:55:26.602Z,99517.69
2023-01-07T06:57:55.388Z,99518.59
2023-01-07T07:00:24.239Z,99515.13
2023-01-07T07:02:53.147Z,99514.28
2023-01-07T07:05:22.144Z,99512.56
2023-01-07T07:07:52.281Z,99515.13
2023-01-07T07:10:21.246Z,99510.94
2023-01-07T07:12:50.130Z,99495.59
2023-01-07T07:15:19.073Z,99509.19
2023-01-07T07:17:47.964Z,99514.28
2023-01-07T07:20:16.753Z,99511.84
2023-01-07T07:22:50.952Z,99514.41
2023-01-07T07:25:19.588Z,99495.69
2023-01-07T07:27:48.418Z,99505.91
2023-01-07T07:30:17.661Z,99504.16
2023-01-07T07:32:46.444Z,99496.50
2023-01-07T07:35:15.159Z,99493.94
2023-01-07T07:37:43.798Z,99490.56
2023-01-07T07:40:14.636Z,99491.38
2023-01-07T07:43:11.556Z,99490.56
2023-01-07T07:45:31.994Z,99482.06
2023-01-07T07:48:00.623Z,99484.63
2023-01-07T07:50:29.266Z,99481.16
2023-01-07T07:52:57.889Z,99480.34
2023-01-07T07:55:27.939Z,99476.94
2023-01-07T07:57:56.937Z,99474.38
2023-01-07T08:00:26.225Z,99470.09
2023-01-07T08:02:58.524Z,99469.28
2023-01-07T08:05:27.601Z,99471.81
2023-01-07T08:07:56.754Z,99463.34
2023-01-07T08:10:27.553Z,99469.28
2023-01-07T08:12:56.247Z,99464.16
2023-01-07T08:15:24.895Z,99458.34
2023-01-07T08:18:00.090Z,99460.78
2023-01-07T08:20:29.388Z,99453.13
2023-01-07T08:23:00.357Z,99443.00
2023-01-07T08:25:32.467Z,99449.81
2023-01-07T08:28:02.605Z,99450.66
2023-01-07T08:30:32.033Z,99442.03
2023-01-07T08:33:01.695Z,99452.28
2023-01-07T08:35:30.339Z,99447.16
2023-01-07T08:38:03.989Z,99448.81
2023-01-07T08:40:34.444Z,99442.03
2023-01-07T08:43:04.909Z,99446.25
2023-01-07T08:45:34.113Z,99439.41
2023-01-07T08:48:03.121Z,99435.91
2023-01-07T08:50:34.315Z,99442.78
2023-01-07T08:53:02.953Z,99426.50
2023-01-07T08:55:32.909Z,99433.28
2023-01-07T08:58:01.569Z,99426.50
2023-01-07T09:00:30.255Z,99431.63
2023-01-07T09:02:58.986Z,99422.19
2023-01-07T09:05:27.632Z,99430.72
2023-01-07T09:07:56.918Z,99428.97
2023-01-07T09:10:26.619Z,99417.94
2023-01-07T09:12:56.759Z,99425.59
2023-01-07T09:15:28.335Z,99416.97
2023-01-07T09:17:56.986Z,99413.50
2023-01-07T09:20:25.614Z,99412.81
2023-01-07T09:22:54.315Z,99402.56
2023-01-07T09:25:22.983Z,99403.38
2023-01-07T09:27:51.811Z,99403.38
2023-01-07T09:30:21.878Z,99404.19
2023-01-07T09:32:50.467Z,99392.34
2023-01-07T09:35:19.495Z,99401.63
2023-01-07T09:37:48.167Z,99408.41
2023-01-07T09:40:25.010Z,99404.19
2023-01-07T09:43:03.362Z,99394.78
2023-01-07T09:45:37.651Z,99391.41
2023-01-07T09:48:16.503Z,99390.47
2023-01-07T09:50:52.482Z,99384.56
2023-01-07T09:53:26.675Z,99384.47
2023-01-07T09:56:10.738Z,99381.91
2023-01-07T09:58:44.233Z,99377.69
2023-01-07T10:01:25.440Z,99371.66
2023-01-07T10:04:16.747Z,99365.72
2023-01-07T10:06:53.727Z,99373.31
2023-01-07T10:09:37.313Z,99369.91
2023-01-07T10:12:14.666Z,99367.25
2023-01-07T10:15:06.838Z,99365.53
2023-01-07T10:18:01.841Z,99361.22
2023-01-07T10:20:39.094Z,99350.97
2023-01-07T10:23:14.190Z,99348.41
2023-01-07T10:25:47.310Z,99351.69
2023-01-07T10:28:22.114Z,99344.03
2023-01-07T10:30:53.070Z,99355.75
2023-01-07T10:33:26.952Z,99348.94
2023-01-07T10:36:07.103Z,99351.50
2023-01-07T10:38:38.690Z,99343.81
2023-01-07T10:41:15.801Z,99339.50
2023-01-07T10:44:04.774Z,99337.78
2023-01-07T10:46:49.973Z,99337.78
2023-01-07T10:49:42.176Z,99328.34
2023-01-07T10:52:21.286Z,99324.03
2023-01-07T10:55:29.427Z,99319.88
2023-01-07T10:57:59.317Z,99305.31
2023-01-07T11:00:34.364Z,99306.13
2023-01-07T11:03:03.142Z,99307.78
2023-01-07T11:05:39.759Z,99308.50
2023-01-07T11:08:15.097Z,99296.50
2023-01-07T11:10:44.203Z,99287.91
2023-01-07T11:13:17.610Z,99283.59
2023-01-07T11:15:52.041Z,99278.38
2023-01-07T11:18:25.882Z,99273.25
2023-01-07T11:20:57.568Z,99268.03
2023-01-07T11:23:35.956Z,99252.66
2023-01-07T11:26:28.316Z,99257.78
2023-01-07T11:28:59.991Z,99255.22
2023-01-07T11:31:49.300Z,99254.31
2023-01-07T11:34:24.561Z,99240.72
2023-01-07T11:36:57.576Z,99240.59
2023-01-07T11:39:29.425Z,99241.41
2023-01-07T11:42:00.496Z,99244.81
2023-01-07T11:44:29.362Z,99231.88
2023-01-07T11:46:58.261Z,99231.00
2023-01-07T11:49:32.279Z,99222.38
2023-01-07T11:52:02.355Z,99209.69
2023-01-07T11:54:33.829Z,99206.22
2023-01-07T11:57:21.927Z,99201.19
2023-01-07T12:00:13.486Z,99195.22
2023-01-07T12:02:42.321Z,99194.44
2023-01-07T12:05:21.835Z,99187.56
2023-01-07T12:07:53.042Z,99181.63
2023-01-07T12:10:32.713Z,99190.09
2023-01-07T12:13:04.005Z,99174.75
2023-01-07T12:15:35.564Z,99168.75
2023-01-07T12:18:43.027Z,99168.84
2023-01-07T12:21:34.604Z,99165.47
2023-01-07T12:24:55.222Z,99158.72
2023-01-07T12:27:40.737Z,99156.16
2023-01-07T12:30:57.963Z,99151.16
2023-01-07T12:33:55.733Z,99150.31
2023-01-07T12:36:38.759Z,99146.84
2023-01-07T12:39:17.082Z,99140.91
2023-01-07T12:42:02.534Z,99129.75
2023-01-07T12:44:31.479Z,99128.00
2023-01-07T12:47:30.661Z,99124.53
2023-01-07T12:50:04.973Z,99120.34
2023-01-07T12:52:45.184Z,99118.56
2023-01-07T12:55:21.861Z,99120.13
2023-01-07T12:58:05.408Z,99115.09
2023-01-07T13:00:38.761Z,99109.19
2023-01-07T13:03:20.754Z,99098.81
2023-01-07T13:05:55.918Z,99092.81
2023-01-07T13:08:35.281Z,99096.19
2023-01-07T13:11:15.529Z,99092.69
2023-01-07T13:13:53.187Z,99089.31
2023-01-07T13:16:23.965Z,99081.56
2023-01-07T13:18:52.592Z,99085.72
2023-01-07T13:21:24.926Z,99070.25
2023-01-07T13:24:08.669Z,99074.56
2023-01-07T13:26:53.705Z,99074.56
2023-01-07T13:29:46.293Z,99069.44
2023-01-07T13:32:34.693Z,99062.56
2023-01-07T13:35:35.690Z,99064.31
2023-01-07T13:38:32.355Z,99062.69
2023-01-07T13:41:32.896Z,99065.13
2023-01-07T13:44:25.721Z,99069.44
2023-01-07T13:46:56.156Z,99060.84
2023-01-07T13:49:28.601Z,99060.84
2023-01-07T13:51:58.158Z,99056.53
2023-01-07T13:54:58.616Z,99059.19
2023-01-07T13:57:46.971Z,99065.97
2023-01-07T14:00:45.619Z,99053.28
2023-01-07T14:03:41.260Z,99061.75
2023-01-07T14:06:44.958Z,99060.97
2023-01-07T14:09:32.318Z,99060.97
2023-01-07T14:12:47.998Z,99052.44
2023-01-07T14:16:02.325Z,99046.63
2023-01-07T14:19:07.589Z,99043.25
2023-01-07T14:21:53.537Z,99039.88
2023-01-07T14:24:56.233Z,99040.69
2023-01-07T14:27:45.879Z,99039.88
2023-01-07T14:30:21.841Z,99042.22
2023-01-07T14:33:00.201Z,99040.47
2023-01-07T14:35:35.690Z,99037.22
2023-01-07T14:39:06.798Z,99040.59
2023-01-07T14:41:35.619Z,99027.81
2023-01-07T14:44:30.504Z,99032.09
2023-01-07T14:46:59.324Z,99028.72
2023-01-07T14:50:02.801Z,99033.00
2023-01-07T14:53:00.791Z,99034.78
2023-01-07T14:56:06.479Z,99026.28
2023-01-07T14:59:07.964Z,99016.06
2023-01-07T15:02:45.168Z,99017.06
2023-01-07T15:05:40.634Z,99018.00
2023-01-07T15:08:32.254Z,99010.31
2023-01-07T15:11:20.676Z,99005.19
2023-01-07T15:14:16.909Z,99015.44
2023-01-07T15:16:49.026Z,99001.00
2023-01-07T15:19:17.763Z,99003.56
2023-01-07T15:22:01.508Z,99000.06
2023-01-07T15:24:39.014Z,98995.06
2023-01-07T15:27:15.227Z,98997.63
2023-01-07T15:29:54.641Z,99003.66
2023-01-07T15:32:38.348Z,99005.44
2023-01-07T15:35:16.569Z,99014.84
2023-01-07T15:37:47.450Z,98998.69
2023-01-07T15:40:23.516Z,99002.16
2023-01-07T15:42:56.763Z,99007.28
2023-01-07T15:45:28.602Z,99000.63
2023-01-07T15:48:08.977Z,98998.06
2023-01-07T15:50:45.864Z,99005.88
2023-01-07T15:53:22.796Z,99009.34
2023-01-07T15:55:58.478Z,98997.50
2023-01-07T15:58:36.450Z,99004.47
2023-01-07T16:01:06.025Z,98997.72
2023-01-07T16:03:38.822Z,98991.00
2023-01-07T16:06:28.438Z,98999.59
2023-01-07T16:08:57.294Z,98993.75
2023-01-07T16:11:30.011Z,98989.59
2023-01-07T16:14:00.125Z,98991.44
2023-01-07T16:16:32.088Z,98993.06
2023-01-07T16:19:02.312Z,98988.19
2023-01-07T16:21:33.713Z,98994.22
2023-01-07T16:24:02.476Z,98990.84
2023-01-07T16:26:40.644Z,98987.47
2023-01-07T16:29:14.230Z,98984.91
2023-01-07T16:31:43.282Z,98973.97
2023-01-07T16:35:01.671Z,98966.53
2023-01-07T16:37:31.427Z,98976.09
2023-01-07T16:40:00.830Z,98970.13
2023-01-07T16:42:33.539Z,98974.44
2023-01-07T16:45:09.110Z,98964.22
2023-01-07T16:47:39.590Z,98967.81
2023-01-07T16:50:32.051Z,98964.56
2023-01-07T16:53:00.913Z,98958.63
2023-01-07T16:55:49.100Z,98958.75
2023-01-07T16:58:27.751Z,98952.81
2023-01-07T17:01:01.027Z,98950.38
2023-01-07T17:03:45.825Z,98946.19
2023-01-07T17:06:23.239Z,98939.44
2023-01-07T17:08:55.581Z,98940.34
2023-01-07T17:11:31.375Z,98942.13
2023-01-07T17:14:01.542Z,98932.81
2023-01-07T17:16:32.826Z,98931.16
2023-01-07T17:19:25.741Z,98931.28
2023-01-07T17:21:55.090Z,98924.53
2023-01-07T17:24:46.955Z,98933.97
2023-01-07T17:27:25.586Z,98931.53
2023-01-07T17:29:56.111Z,98925.59
2023-01-07T17:32:25.404Z,98927.31
2023-01-07T17:34:56.508Z,98922.34
2023-01-07T17:37:25.172Z,98924.88
2023-01-07T17:39:53.774Z,98915.59
2023-01-07T17:42:43.185Z,98917.22
2023-01-07T17:45:19.948Z,98910.59
2023-01-07T17:47:52.816Z,98909.78
2023-01-07T17:50:22.281Z,98914.78
2023-01-07T17:52:54.038Z,98914.91
2023-01-07T17:55:26.770Z,98924.41
2023-01-07T17:57:57.417Z,98926.97
2023-01-07T18:00:30.781Z,98926.97
2023-01-07T18:02:59.661Z,98912.53
2023-01-07T18:05:30.991Z,98910.81
2023-01-07T18:08:01.685Z,98916.06
2023-01-07T18:10:52.054Z,98913.50
2023-01-07T18:13:19.738Z,98904.31
2023-01-07T18:15:50.944Z,98905.22
2023-01-07T18:18:19.645Z,98902.66
2023-01-07T18:20:48.282Z,98899.31
2023-01-07T18:23:18.111Z,98909.66
2023-01-07T18:25:47.231Z,98896.88
2023-01-07T18:28:15.888Z,98896.97
2023-01-07T18:30:44.882Z,98904.63
2023-01-07T18:33:15.043Z,98903.81
2023-01-07T18:35:43.705Z,98906.38
2023-01-07T18:38:13.873Z,98907.31
2023-01-07T18:40:42.995Z,98905.56
2023-01-07T18:43:15.988Z,98908.13
2023-01-07T18:45:46.638Z,98899.63
2023-01-07T18:48:18.649Z,98900.59
2023-01-07T18:50:49.915Z,98894.66
2023-01-07T18:53:22.471Z,98891.41
2023-01-07T18:56:01.368Z,98887.09
2023-01-07T18:58:30.141Z,98887.22
2023-01-07T19:01:04.819Z,98888.94
2023-01-07T19:03:35.302Z,98879.66
2023-01-07T19:06:08.541Z,98888.13
2023-01-07T19:08:37.665Z,98885.56
2023-01-07T19:11:08.615Z,98885.56
2023-01-07T19:13:37.424Z,98887.31
2023-01-07T19:16:08.302Z,98887.31
2023-01-07T19:18:38.310Z,98886.50
2023-01-07T19:21:09.850Z,98881.38
2023-01-07T19:23:38.510Z,98878.13
2023-01-07T19:26:09.730Z,98870.59
2023-01-07T19:28:38.366Z,98879.97
2023-01-07T19:31:08.983Z,98882.53
2023-01-07T19:33:39.633Z,98883.47
2023-01-07T19:36:11.122Z,98884.41
2023-01-07T19:38:40.755Z,98892.06
2023-01-07T19:41:11.493Z,98878.56
2023-01-07T19:43:40.436Z,98882.88
2023-01-07T19:46:11.653Z,98874.41
2023-01-07T19:48:42.350Z,98871.03
2023-01-07T19:51:12.268Z,98858.38
2023-01-07T19:53:41.518Z,98858.38
2023-01-07T19:56:13.195Z,98859.28
2023-01-07T19:58:42.945Z,98858.38
2023-01-07T20:01:14.626Z,98855.00
2023-01-07T20:03:45.808Z,98859.28
2023-01-07T20:06:17.722Z,98849.06
2023-01-07T20:08:46.896Z,98839.69
2023-01-07T20:11:16.997Z,98842.25
2023-01-07T20:13:47.361Z,98855.13
2023-01-07T20:16:18.251Z,98861.84
2023-01-07T20:18:50.826Z,98847.47
2023-01-07T20:21:21.923Z,98850.81
2023-01-07T20:23:50.794Z,98850.81
2023-01-07T20:26:21.690Z,98847.47
2023-01-07T20:28:52.248Z,98837.25
2023-01-07T20:31:23.823Z,98847.47
2023-01-07T20:33:55.824Z,98851.75
2023-01-07T20:36:27.430Z,98850.09
2023-01-07T20:38:56.231Z,98855.34
2023-01-07T20:41:27.484Z,98847.53
2023-01-07T20:43:58.369Z,98848.38
2023-01-07T20:46:29.111Z,98840.59
2023-01-07T20:48:59.573Z,98845.72
2023-01-07T20:51:28.743Z,98837.13
2023-01-07T20:53:58.265Z,98840.47
2023-01-07T20:56:31.911Z,98853.16
2023-01-07T20:59:01.912Z,98844.66
2023-01-07T21:01:31.181Z,98844.56
2023-01-07T21:04:01.924Z,98843.63
2023-01-07T21:06:30.628Z,98842.81
2023-01-07T21:08:59.259Z,98846.19
2023-01-07T21:11:28.137Z,98834.22
2023-01-07T21:13:57.009Z,98833.31
2023-01-07T21:16:27.498Z,98830.75
2023-01-07T21:18:56.489Z,98827.34
2023-01-07T21:21:27.024Z,98822.16
2023-01-07T21:23:56.171Z,98820.53
2023-01-07T21:26:26.192Z,98818.78
2023-01-07T21:28:56.551Z,98817.84
2023-01-07T21:31:26.143Z,98811.00
2023-01-07T21:33:56.872Z,98812.63
2023-01-07T21:36:28.271Z,98814.38
2023-01-07T21:38:58.895Z,98821.09
2023-01-07T21:41:29.599Z,98822.84
2023-01-07T21:43:58.412Z,98834.69
2023-01-07T21:46:27.479Z,98829.59
2023-01-07T21:48:56.491Z,98827.03
2023-01-07T21:51:28.731Z,98826.13
2023-01-07T21:53:59.381Z,98816.69
2023-01-07T21:56:32.697Z,98815.97
2023-01-07T21:59:03.562Z,98816.81
2023-01-07T22:01:32.395Z,98806.59
2023-01-07T22:04:01.469Z,98812.50
2023-01-07T22:06:33.724Z,98813.34
2023-01-07T22:09:05.030Z,98810.66
2023-01-07T22:11:35.267Z,98796.94
2023-01-07T22:14:04.013Z,98808.09
2023-01-07T22:16:33.775Z,98808.00
2023-01-07T22:19:02.841Z,98806.94
2023-01-07T22:21:33.838Z,98801.84
2023-01-07T22:24:02.474Z,98802.63
2023-01-07T22:26:31.091Z,98806.72
2023-01-07T22:29:03.622Z,98809.97
2023-01-07T22:31:36.419Z,98803.91
2023-01-07T22:34:06.357Z,98815.66
2023-01-07T22:36:44.016Z,98814.72
2023-01-07T22:39:17.510Z,98817.97
2023-01-07T22:41:46.467Z,98806.81
2023-01-07T22:44:18.922Z,98807.53
2023-01-07T22:46:50.672Z,98808.22
2023-01-07T22:49:19.871Z,98799.63
2023-01-07T22:51:50.834Z,98794.50
2023-01-07T22:54:19.995Z,98795.22
2023-01-07T22:56:49.003Z,98795.91
2023-01-07T22:59:17.987Z,98793.34
2023-01-07T23:01:46.559Z,98788.13
2023-01-07T23:04:15.209Z,98784.63
2023-01-07T23:06:43.879Z,98787.19
2023-01-07T23:09:13.994Z,98782.75
2023-01-07T23:11:51.931Z,98778.47
2023-01-07T23:14:22.960Z,98780.13
2023-01-07T23:16:53.032Z,98773.25
2023-01-07T23:19:22.997Z,98771.50
2023-01-07T23:21:53.846Z,98770.56
2023-01-07T23:24:24.688Z,98771.41
2023-01-07T23:26:55.333Z,98764.53
2023-01-07T23:29:24.538Z,98761.84
2023-01-07T23:31:53.306Z,98762.66
2023-01-07T23:34:22.124Z,98752.41
2023-01-07T23:36:50.780Z,98756.63
2023-01-07T23:39:19.433Z,98755.69
2023-01-07T23:41:49.482Z,98750.56
2023-01-07T23:44:18.434Z,98747.09
2023-01-07T23:46:47.669Z,98747.09
2023-01-07T23:49:16.358Z,98741.97
2023-01-07T23:51:44.955Z,98733.34
2023-01-07T23:54:13.817Z,98730.78
2023-01-07T23:56:42.631Z,98727.31
2023-01-07T23:59:12.894Z,98723.03
